sensor_id;sensor_type;location;lat;lon;timestamp;temperature;humidity
63397;SHT31;49532;45.068;38.928;2022-07-04T04:36:13;21.94;69.87
63397;SHT31;49532;45.068;38.928;2022-07-04T04:41:14;22.18;69.62
63397;SHT31;49532;45.068;38.928;2022-07-04T04:46:17;22.48;69.15
63397;SHT31;49532;45.068;38.928;2022-07-04T04:51:18;23.06;68.37
63397;SHT31;49532;45.068;38.928;2022-07-04T04:56:19;23.28;67.02
63397;SHT31;49532;45.068;38.928;2022-07-04T05:01:20;24.50;64.32
63397;SHT31;49532;45.068;38.928;2022-07-04T05:06:21;26.07;61.02
63397;SHT31;49532;45.068;38.928;2022-07-04T05:11:22;27.04;57.46
63397;SHT31;49532;45.068;38.928;2022-07-04T05:16:23;27.99;54.81
63397;SHT31;49532;45.068;38.928;2022-07-04T05:21:24;28.63;50.89
63397;SHT31;49532;45.068;38.928;2022-07-04T05:26:26;29.55;51.36
63397;SHT31;49532;45.068;38.928;2022-07-04T05:31:28;30.13;49.48
63397;SHT31;49532;45.068;38.928;2022-07-04T05:36:29;30.24;49.11
63397;SHT31;49532;45.068;38.928;2022-07-04T05:41:30;30.47;48.27
63397;SHT31;49532;45.068;38.928;2022-07-04T05:46:31;30.69;47.56
63397;SHT31;49532;45.068;38.928;2022-07-04T05:51:33;30.78;47.32
63397;SHT31;49532;45.068;38.928;2022-07-04T05:56:34;31.16;47.40
63397;SHT31;49532;45.068;38.928;2022-07-04T06:01:38;31.54;46.75
63397;SHT31;49532;45.068;38.928;2022-07-04T06:06:40;31.98;46.00
63397;SHT31;49532;45.068;38.928;2022-07-04T06:11:41;32.69;45.08
63397;SHT31;49532;45.068;38.928;2022-07-04T06:16:42;33.18;44.16
63397;SHT31;49532;45.068;38.928;2022-07-04T06:21:43;33.38;43.49
63397;SHT31;49532;45.068;38.928;2022-07-04T06:26:44;33.72;42.50
63397;SHT31;49532;45.068;38.928;2022-07-04T06:31:45;34.05;41.86
63397;SHT31;49532;45.068;38.928;2022-07-04T06:36:46;34.53;40.77
63397;SHT31;49532;45.068;38.928;2022-07-04T06:41:47;34.76;39.92
63397;SHT31;49532;45.068;38.928;2022-07-04T06:46:48;34.90;39.89
63397;SHT31;49532;45.068;38.928;2022-07-04T06:51:50;34.91;39.32
63397;SHT31;49532;45.068;38.928;2022-07-04T06:56:51;34.80;39.09
63397;SHT31;49532;45.068;38.928;2022-07-04T07:01:52;34.63;39.21
63397;SHT31;49532;45.068;38.928;2022-07-04T07:06:53;34.19;38.88
63397;SHT31;49532;45.068;38.928;2022-07-04T07:11:54;33.84;40.08
63397;SHT31;49532;45.068;38.928;2022-07-04T07:16:56;33.98;39.73
63397;SHT31;49532;45.068;38.928;2022-07-04T07:21:57;34.26;38.65
63397;SHT31;49532;45.068;38.928;2022-07-04T07:26:58;34.49;37.50
63397;SHT31;49532;45.068;38.928;2022-07-04T07:31:59;34.71;37.20
63397;SHT31;49532;45.068;38.928;2022-07-04T07:37:00;34.93;36.74
63397;SHT31;49532;45.068;38.928;2022-07-04T07:42:01;35.08;36.92
63397;SHT31;49532;45.068;38.928;2022-07-04T07:47:03;34.93;37.40
63397;SHT31;49532;45.068;38.928;2022-07-04T07:52:04;34.84;37.27
63397;SHT31;49532;45.068;38.928;2022-07-04T07:57:05;34.63;37.26
63397;SHT31;49532;45.068;38.928;2022-07-04T08:02:06;34.64;37.79
63397;SHT31;49532;45.068;38.928;2022-07-04T08:07:09;34.50;37.62
63397;SHT31;49532;45.068;38.928;2022-07-04T08:12:10;34.40;36.93
63397;SHT31;49532;45.068;38.928;2022-07-04T08:17:11;34.15;37.20
63397;SHT31;49532;45.068;38.928;2022-07-04T08:22:13;33.98;37.83
63397;SHT31;49532;45.068;38.928;2022-07-04T08:27:14;33.92;37.40
63397;SHT31;49532;45.068;38.928;2022-07-04T08:32:15;33.84;38.07
63397;SHT31;49532;45.068;38.928;2022-07-04T08:37:16;33.74;37.53
63397;SHT31;49532;45.068;38.928;2022-07-04T08:42:19;33.55;37.96
63397;SHT31;49532;45.068;38.928;2022-07-04T08:47:22;33.48;36.93
63397;SHT31;49532;45.068;38.928;2022-07-04T08:52:47;33.53;36.29
63397;SHT31;49532;45.068;38.928;2022-07-04T08:57:49;33.35;36.67
63397;SHT31;49532;45.068;38.928;2022-07-04T09:03:10;33.27;36.34
63397;SHT31;49532;45.068;38.928;2022-07-04T09:08:11;33.33;37.09
63397;SHT31;49532;45.068;38.928;2022-07-04T09:13:13;33.35;37.05
63397;SHT31;49532;45.068;38.928;2022-07-04T09:18:34;33.33;37.04
63397;SHT31;49532;45.068;38.928;2022-07-04T09:23:39;33.40;37.92
63397;SHT31;49532;45.068;38.928;2022-07-04T09:28:57;33.10;38.48
63397;SHT31;49532;45.068;38.928;2022-07-04T09:34:00;32.53;38.65
63397;SHT31;49532;45.068;38.928;2022-07-04T09:44:14;31.70;39.75
63397;SHT31;49532;45.068;38.928;2022-07-04T09:49:15;31.90;38.53
63397;SHT31;49532;45.068;38.928;2022-07-04T09:59:23;31.97;37.06
63397;SHT31;49532;45.068;38.928;2022-07-04T10:04:40;32.11;36.78
63397;SHT31;49532;45.068;38.928;2022-07-04T10:09:41;32.17;36.97
63397;SHT31;49532;45.068;38.928;2022-07-04T10:14:42;32.24;37.18
63397;SHT31;49532;45.068;38.928;2022-07-04T10:19:43;31.97;36.51
63397;SHT31;49532;45.068;38.928;2022-07-04T10:24:44;31.63;38.23
63397;SHT31;49532;45.068;38.928;2022-07-04T10:29:45;31.60;39.92
63397;SHT31;49532;45.068;38.928;2022-07-04T10:34:46;31.61;40.06
63397;SHT31;49532;45.068;38.928;2022-07-04T10:39:48;31.63;39.48
63397;SHT31;49532;45.068;38.928;2022-07-04T10:44:49;31.51;39.28
63397;SHT31;49532;45.068;38.928;2022-07-04T10:49:53;31.49;39.93
63397;SHT31;49532;45.068;38.928;2022-07-04T10:54:54;31.53;38.61
63397;SHT31;49532;45.068;38.928;2022-07-04T11:15:12;31.40;39.25
63397;SHT31;49532;45.068;38.928;2022-07-04T11:20:13;31.34;40.05
63397;SHT31;49532;45.068;38.928;2022-07-04T11:25:15;30.95;40.01
63397;SHT31;49532;45.068;38.928;2022-07-04T11:30:16;30.60;41.22
63397;SHT31;49532;45.068;38.928;2022-07-04T11:35:20;30.61;41.21
63397;SHT31;49532;45.068;38.928;2022-07-04T11:40:21;30.75;41.58
63397;SHT31;49532;45.068;38.928;2022-07-04T11:45:40;30.83;40.70
63397;SHT31;49532;45.068;38.928;2022-07-04T11:50:41;30.81;40.48
63397;SHT31;49532;45.068;38.928;2022-07-04T11:55:56;30.81;40.42
63397;SHT31;49532;45.068;38.928;2022-07-04T12:00:58;30.82;40.84
63397;SHT31;49532;45.068;38.928;2022-07-04T12:06:05;30.79;39.78
63397;SHT31;49532;45.068;38.928;2022-07-04T12:11:09;30.82;38.19
63397;SHT31;49532;45.068;38.928;2022-07-04T12:16:13;30.92;37.82
63397;SHT31;49532;45.068;38.928;2022-07-04T12:21:15;30.95;37.24
63397;SHT31;49532;45.068;38.928;2022-07-04T12:26:19;30.98;37.44
63397;SHT31;49532;45.068;38.928;2022-07-04T12:31:37;30.88;38.73
63397;SHT31;49532;45.068;38.928;2022-07-04T12:36:52;30.76;39.64
63397;SHT31;49532;45.068;38.928;2022-07-04T12:42:18;30.74;39.68
63397;SHT31;49532;45.068;38.928;2022-07-04T12:47:22;30.76;39.94
63397;SHT31;49532;45.068;38.928;2022-07-04T12:52:27;30.72;39.26
63397;SHT31;49532;45.068;38.928;2022-07-04T12:57:29;30.68;40.25
63397;SHT31;49532;45.068;38.928;2022-07-04T13:02:30;30.67;40.21
63397;SHT31;49532;45.068;38.928;2022-07-04T13:07:31;30.64;40.07
63397;SHT31;49532;45.068;38.928;2022-07-04T13:12:32;30.58;39.40
63397;SHT31;49532;45.068;38.928;2022-07-04T13:17:33;30.54;39.45
63397;SHT31;49532;45.068;38.928;2022-07-04T13:22:34;30.44;39.66
63397;SHT31;49532;45.068;38.928;2022-07-04T13:27:35;30.35;40.25
63397;SHT31;49532;45.068;38.928;2022-07-04T13:32:36;30.24;40.17
63397;SHT31;49532;45.068;38.928;2022-07-04T13:37:37;30.20;39.75
63397;SHT31;49532;45.068;38.928;2022-07-04T13:42:38;30.16;40.42
63397;SHT31;49532;45.068;38.928;2022-07-04T13:47:57;30.16;40.90
63397;SHT31;49532;45.068;38.928;2022-07-04T13:52:58;30.06;41.07
63397;SHT31;49532;45.068;38.928;2022-07-04T13:58:04;30.03;40.87
63397;SHT31;49532;45.068;38.928;2022-07-04T14:03:07;29.99;41.30
63397;SHT31;49532;45.068;38.928;2022-07-04T14:08:08;29.93;41.14
63397;SHT31;49532;45.068;38.928;2022-07-04T14:13:09;29.82;41.99
63397;SHT31;49532;45.068;38.928;2022-07-04T14:18:10;29.79;41.92
63397;SHT31;49532;45.068;38.928;2022-07-04T14:23:14;29.79;41.89
63397;SHT31;49532;45.068;38.928;2022-07-04T14:28:36;29.74;41.81
63397;SHT31;49532;45.068;38.928;2022-07-04T14:33:38;29.70;41.97
63397;SHT31;49532;45.068;38.928;2022-07-04T14:38:39;29.58;41.85
63397;SHT31;49532;45.068;38.928;2022-07-04T14:43:40;29.41;41.99
63397;SHT31;49532;45.068;38.928;2022-07-04T14:48:42;29.34;42.38
63397;SHT31;49532;45.068;38.928;2022-07-04T14:53:43;29.28;42.97
63397;SHT31;49532;45.068;38.928;2022-07-04T14:58:44;29.26;43.03
63397;SHT31;49532;45.068;38.928;2022-07-04T15:03:45;29.19;42.96
63397;SHT31;49532;45.068;38.928;2022-07-04T15:08:46;29.08;43.91
63397;SHT31;49532;45.068;38.928;2022-07-04T15:13:47;28.95;44.60
63397;SHT31;49532;45.068;38.928;2022-07-04T15:18:48;28.88;44.44
63397;SHT31;49532;45.068;38.928;2022-07-04T15:23:49;28.81;44.64
63397;SHT31;49532;45.068;38.928;2022-07-04T15:29:08;28.77;45.18
63397;SHT31;49532;45.068;38.928;2022-07-04T15:34:09;28.68;45.35
63397;SHT31;49532;45.068;38.928;2022-07-04T15:39:15;28.63;45.21
63397;SHT31;49532;45.068;38.928;2022-07-04T15:44:16;28.54;45.77
63397;SHT31;49532;45.068;38.928;2022-07-04T15:49:17;28.46;46.55
63397;SHT31;49532;45.068;38.928;2022-07-04T15:54:18;28.35;46.83
63397;SHT31;49532;45.068;38.928;2022-07-04T15:59:20;28.29;47.76
63397;SHT31;49532;45.068;38.928;2022-07-04T16:04:20;28.22;48.01
63397;SHT31;49532;45.068;38.928;2022-07-04T16:09:22;28.16;48.96
63397;SHT31;49532;45.068;38.928;2022-07-04T16:14:23;28.06;49.02
63397;SHT31;49532;45.068;38.928;2022-07-04T16:19:24;27.99;49.47
63397;SHT31;49532;45.068;38.928;2022-07-04T16:24:25;27.89;49.98
63397;SHT31;49532;45.068;38.928;2022-07-04T16:29:26;27.84;48.71
63397;SHT31;49532;45.068;38.928;2022-07-04T16:34:27;27.80;47.96
63397;SHT31;49532;45.068;38.928;2022-07-04T16:39:28;27.74;47.47
63397;SHT31;49532;45.068;38.928;2022-07-04T16:44:29;27.68;47.65
63397;SHT31;49532;45.068;38.928;2022-07-04T16:49:30;27.58;48.06
63397;SHT31;49532;45.068;38.928;2022-07-04T16:54:31;27.51;47.75
63397;SHT31;49532;45.068;38.928;2022-07-04T16:59:32;27.43;47.91
63397;SHT31;49532;45.068;38.928;2022-07-04T17:04:33;27.30;48.42
63397;SHT31;49532;45.068;38.928;2022-07-04T17:09:34;27.16;48.17
63397;SHT31;49532;45.068;38.928;2022-07-04T17:14:36;27.04;48.73
63397;SHT31;49532;45.068;38.928;2022-07-04T17:19:37;26.95;49.09
63397;SHT31;49532;45.068;38.928;2022-07-04T17:24:38;26.86;49.42
63397;SHT31;49532;45.068;38.928;2022-07-04T17:29:40;26.71;50.05
63397;SHT31;49532;45.068;38.928;2022-07-04T17:34:41;26.52;50.57
63397;SHT31;49532;45.068;38.928;2022-07-04T17:39:42;26.38;51.98
63397;SHT31;49532;45.068;38.928;2022-07-04T17:44:43;26.25;52.19
63397;SHT31;49532;45.068;38.928;2022-07-04T17:49:44;26.11;52.53
63397;SHT31;49532;45.068;38.928;2022-07-04T17:54:45;26.02;52.02
63397;SHT31;49532;45.068;38.928;2022-07-04T17:59:47;25.96;52.32
63397;SHT31;49532;45.068;38.928;2022-07-04T18:04:48;25.88;52.58
63397;SHT31;49532;45.068;38.928;2022-07-04T18:09:49;25.83;51.91
63397;SHT31;49532;45.068;38.928;2022-07-04T18:14:50;25.76;52.01
63397;SHT31;49532;45.068;38.928;2022-07-04T18:19:51;25.70;52.28
63397;SHT31;49532;45.068;38.928;2022-07-04T18:24:52;25.63;52.33
63397;SHT31;49532;45.068;38.928;2022-07-04T18:29:53;25.57;52.81
63397;SHT31;49532;45.068;38.928;2022-07-04T18:34:54;25.51;52.63
63397;SHT31;49532;45.068;38.928;2022-07-04T18:39:56;25.43;53.03
63397;SHT31;49532;45.068;38.928;2022-07-04T18:44:57;25.35;53.66
63397;SHT31;49532;45.068;38.928;2022-07-04T18:49:58;25.26;53.70
63397;SHT31;49532;45.068;38.928;2022-07-04T18:54:59;25.18;54.37
63397;SHT31;49532;45.068;38.928;2022-07-04T19:00:00;25.08;54.35
63397;SHT31;49532;45.068;38.928;2022-07-04T19:05:02;24.99;54.43
63397;SHT31;49532;45.068;38.928;2022-07-04T19:10:04;24.88;54.40
63397;SHT31;49532;45.068;38.928;2022-07-04T19:15:05;24.91;54.36
63397;SHT31;49532;45.068;38.928;2022-07-04T19:20:07;24.89;54.56
63397;SHT31;49532;45.068;38.928;2022-07-04T19:25:09;24.81;55.58
63397;SHT31;49532;45.068;38.928;2022-07-04T19:30:11;24.72;55.42
63397;SHT31;49532;45.068;38.928;2022-07-04T19:35:12;24.57;56.34
63397;SHT31;49532;45.068;38.928;2022-07-04T19:40:13;24.44;55.98
63397;SHT31;49532;45.068;38.928;2022-07-04T19:45:14;24.20;56.51
63397;SHT31;49532;45.068;38.928;2022-07-04T19:50:15;24.02;57.17
63397;SHT31;49532;45.068;38.928;2022-07-04T19:55:17;23.89;57.83
63397;SHT31;49532;45.068;38.928;2022-07-04T20:00:18;23.89;58.81
63397;SHT31;49532;45.068;38.928;2022-07-04T20:05:21;23.89;58.77
63397;SHT31;49532;45.068;38.928;2022-07-04T20:10:22;23.83;58.74
63397;SHT31;49532;45.068;38.928;2022-07-04T20:15:23;23.81;58.55
63397;SHT31;49532;45.068;38.928;2022-07-04T20:20:25;23.79;58.42
63397;SHT31;49532;45.068;38.928;2022-07-04T20:25:25;23.76;59.64
63397;SHT31;49532;45.068;38.928;2022-07-04T20:30:27;23.78;59.33
